Time;durP1;ratioP1;P1;durP2;ratioP2;P2;SDS_P1;SDS_P2;PMS_P1;PMS_P2;Temp;Humidity;BMP_temperature;BMP_pressure;BME280_temperature;BME280_humidity;BME280_pressure;Samples;Min_cycle;Max_cycle;Signal;HPM_P1;HPM_P2
2021/09/05 00:02:01;;;;;;;15.27;8.70;;;;;;;14.44;74.99;96419.97;4951464;29;20047;-78
2021/09/05 00:04:28;;;;;;;12.98;8.95;;;;;;;14.39;75.54;96422.94;4952179;29;20589;-80
2021/09/05 00:06:55;;;;;;;12.10;8.45;;;;;;;14.38;75.79;96427.59;4952119;29;20659;-79
2021/09/05 00:09:21;;;;;;;14.73;9.00;;;;;;;14.36;76.23;96430.69;4951538;29;20057;-77
2021/09/05 00:11:50;;;;;;;12.18;9.15;;;;;;;14.35;75.75;96426.38;4951952;29;20507;-77
2021/09/05 00:14:17;;;;;;;16.27;9.10;;;;;;;14.34;76.07;96427.47;4953357;28;20059;-76
2021/09/05 00:16:45;;;;;;;11.70;8.77;;;;;;;14.33;76.18;96423.16;4955950;29;20055;-79
2021/09/05 00:19:11;;;;;;;11.80;7.68;;;;;;;14.38;76.26;96426.81;4954925;29;20058;-77
2021/09/05 00:21:38;;;;;;;11.27;8.32;;;;;;;14.39;75.66;96422.94;4955686;29;20062;-78
2021/09/05 00:24:05;;;;;;;13.07;8.80;;;;;;;14.33;75.85;96428.63;4954759;29;20411;-76
2021/09/05 00:26:32;;;;;;;11.80;7.50;;;;;;;14.28;75.72;96428.84;4955456;29;20077;-80
2021/09/05 00:28:59;;;;;;;11.52;8.30;;;;;;;14.24;75.55;96425.19;4955426;29;20083;-76
2021/09/05 00:31:25;;;;;;;10.45;7.40;;;;;;;14.20;75.24;96427.03;4954680;29;20067;-77
2021/09/05 00:33:54;;;;;;;11.63;8.18;;;;;;;14.13;75.59;96423.22;4955239;29;20051;-78
2021/09/05 00:36:20;;;;;;;10.95;7.20;;;;;;;14.08;75.54;96424.22;4954856;29;20494;-78
2021/09/05 00:38:47;;;;;;;11.68;8.00;;;;;;;14.04;75.52;96424.13;4955011;28;20047;-77
2021/09/05 00:41:13;;;;;;;11.43;7.65;;;;;;;14.01;75.41;96430.28;4954782;29;20081;-76
2021/09/05 00:43:58;;;;;;;10.80;7.75;;;;;;;14.04;75.96;96431.53;4955267;29;20110;-76
2021/09/05 00:46:24;;;;;;;14.00;7.55;;;;;;;14.04;75.81;96439.72;4954677;29;20502;-78
2021/09/05 00:48:51;;;;;;;13.13;8.10;;;;;;;14.02;75.92;96436.53;4955161;29;20054;-75
2021/09/05 00:51:18;;;;;;;10.95;7.47;;;;;;;14.01;75.97;96434.94;4954474;29;20434;-77
2021/09/05 00:53:46;;;;;;;10.93;7.35;;;;;;;13.97;76.08;96444.97;4954281;29;20525;-77
2021/09/05 00:56:13;;;;;;;10.00;7.30;;;;;;;13.93;75.93;96439.34;4954657;29;20432;-77
2021/09/05 00:58:41;;;;;;;14.45;7.88;;;;;;;13.87;76.04;96437.97;4954910;29;20477;-76
2021/09/05 01:01:08;;;;;;;14.18;7.90;;;;;;;13.84;76.17;96435.94;4954017;29;20517;-78
2021/09/05 01:03:34;;;;;;;11.52;7.93;;;;;;;13.79;76.54;96439.66;4954871;29;20066;-75
2021/09/05 01:06:01;;;;;;;12.20;7.97;;;;;;;13.81;77.08;96440.13;4954103;29;20055;-76
2021/09/05 01:08:29;;;;;;;11.15;7.60;;;;;;;13.84;77.16;96441.41;4954467;29;20043;-77
2021/09/05 01:10:55;;;;;;;12.07;7.25;;;;;;;13.88;77.00;96449.72;4954691;29;20559;-76
2021/09/05 01:13:22;;;;;;;10.65;7.03;;;;;;;13.82;76.62;96444.47;4954067;29;20384;-76
2021/09/05 01:15:48;;;;;;;10.80;7.13;;;;;;;13.84;76.62;96441.41;4954607;29;20172;-77
2021/09/05 01:18:15;;;;;;;11.68;6.93;;;;;;;13.82;76.60;96444.47;4954180;29;20048;-78
2021/09/05 01:20:42;;;;;;;9.35;6.95;;;;;;;13.81;77.02;96442.06;4954603;29;20047;-77
2021/09/05 01:23:08;;;;;;;9.05;6.25;;;;;;;13.80;76.33;96457.69;4954080;29;20057;-75
2021/09/05 01:25:36;;;;;;;10.18;7.03;;;;;;;13.79;76.35;96456.09;4953945;28;20054;-76
2021/09/05 01:28:08;;;;;;;11.90;7.80;;;;;;;13.78;76.31;96453.66;4953856;29;20051;-76
2021/09/05 01:30:35;;;;;;;12.90;7.32;;;;;;;13.70;75.52;96455.38;4950035;29;20054;-78
2021/09/05 01:33:01;;;;;;;10.80;7.20;;;;;;;13.73;75.44;96454.72;4954006;29;20550;-78
2021/09/05 01:35:28;;;;;;;12.38;7.10;;;;;;;13.72;75.57;96455.81;4954142;29;20047;-77
2021/09/05 01:37:54;;;;;;;11.05;6.97;;;;;;;13.70;76.45;96458.09;4953943;29;20537;-75
2021/09/05 01:40:21;;;;;;;8.05;6.50;;;;;;;13.68;76.66;96454.91;4953873;29;20059;-77
2021/09/05 01:42:47;;;;;;;12.45;6.90;;;;;;;13.67;76.33;96458.75;4954115;29;20058;-77
2021/09/05 01:45:15;;;;;;;9.77;6.50;;;;;;;13.65;76.52;96461.03;4953497;29;20051;-76
2021/09/05 01:47:42;;;;;;;9.10;6.18;;;;;;;13.66;76.04;96467.31;4954057;29;20047;-77
2021/09/05 01:50:09;;;;;;;11.88;7.13;;;;;;;13.65;75.86;96466.50;4953497;29;20047;-77
2021/09/05 01:52:36;;;;;;;8.32;6.10;;;;;;;13.63;75.93;96468.78;4954111;29;20051;-77
2021/09/05 01:55:02;;;;;;;10.63;6.75;;;;;;;13.58;76.10;96463.53;4953599;29;20055;-76
2021/09/05 01:57:29;;;;;;;10.55;6.38;;;;;;;13.54;76.11;96460.66;4953970;29;20059;-77
2021/09/05 01:59:55;;;;;;;9.65;5.93;;;;;;;13.52;76.12;96462.09;4953255;29;20058;-77
2021/09/05 02:02:23;;;;;;;8.93;6.35;;;;;;;13.47;75.76;96471.34;4953288;29;20051;-77
2021/09/05 02:04:50;;;;;;;10.23;6.88;;;;;;;13.41;75.50;96472.66;4953431;29;20047;-76
2021/09/05 02:07:16;;;;;;;8.20;6.25;;;;;;;13.38;75.84;96473.31;4953388;29;20514;-76
2021/09/05 02:09:43;;;;;;;8.52;6.53;;;;;;;13.37;76.11;96465.47;4953684;29;20103;-77
2021/09/05 02:12:09;;;;;;;9.05;6.10;;;;;;;13.32;75.63;96477.41;4953174;29;20051;-76
2021/09/05 02:14:36;;;;;;;10.02;6.15;;;;;;;13.28;75.76;96479.97;4953415;29;20059;-76
2021/09/05 02:17:02;;;;;;;9.02;6.55;;;;;;;13.27;75.91;96475.66;4953067;29;20047;-76
2021/09/05 02:19:31;;;;;;;9.00;6.20;;;;;;;13.32;75.64;96480.13;4953462;29;20050;-75
2021/09/05 02:21:58;;;;;;;9.85;6.07;;;;;;;13.37;75.75;96476.41;4953291;29;20640;-76
2021/09/05 02:24:24;;;;;;;8.60;6.10;;;;;;;13.38;75.20;96472.53;4952890;29;20058;-75
2021/09/05 02:26:51;;;;;;;8.70;6.13;;;;;;;13.30;75.95;96480.44;4953201;29;20047;-76
2021/09/05 02:29:17;;;;;;;9.02;6.43;;;;;;;13.25;76.33;96477.09;4952930;29;20047;-75
2021/09/05 02:31:44;;;;;;;8.43;6.45;;;;;;;13.22;76.49;96475.06;4952831;29;20054;-77
2021/09/05 02:34:10;;;;;;;9.45;5.85;;;;;;;13.22;76.39;96475.84;4952751;29;20043;-75
2021/09/05 02:36:38;;;;;;;10.02;6.25;;;;;;;13.18;76.95;96479.53;4952949;28;20052;-76
2021/09/05 02:39:05;;;;;;;8.70;6.07;;;;;;;13.15;77.05;96481.00;4952293;29;20043;-75
2021/09/05 02:41:31;;;;;;;10.48;6.20;;;;;;;13.12;76.66;96481.66;4953156;29;20043;-75
2021/09/05 02:43:57;;;;;;;10.10;6.10;;;;;;;13.11;76.50;96479.28;4952937;29;20517;-77
2021/09/05 02:46:24;;;;;;;8.68;6.15;;;;;;;13.05;76.48;96482.19;4952337;29;20499;-75
2021/09/05 02:48:50;;;;;;;8.52;6.22;;;;;;;13.03;76.28;96483.66;4952844;29;20047;-75
2021/09/05 02:51:17;;;;;;;9.73;6.40;;;;;;;12.98;76.37;96481.09;4952379;29;20442;-76
2021/09/05 02:53:45;;;;;;;9.00;5.82;;;;;;;12.94;76.72;96488.34;4953005;29;20616;-77
2021/09/05 02:56:11;;;;;;;10.88;6.78;;;;;;;12.91;76.56;96486.31;4952263;29;20051;-76
2021/09/05 02:58:39;;;;;;;9.27;5.72;;;;;;;12.88;76.41;96493.22;4952929;29;20055;-76
2021/09/05 03:01:06;;;;;;;11.15;6.32;;;;;;;12.86;76.43;96489.22;4951775;29;20051;-75
2021/09/05 03:03:32;;;;;;;9.80;6.00;;;;;;;12.86;76.79;96490.00;4952937;29;20055;-76
2021/09/05 03:05:59;;;;;;;8.27;5.78;;;;;;;12.85;76.85;96482.94;4952575;29;20051;-76
2021/09/05 03:08:25;;;;;;;8.93;6.22;;;;;;;12.89;76.68;96483.06;4952483;29;20043;-77
2021/09/05 03:10:53;;;;;;;10.57;5.38;;;;;;;12.93;76.27;96486.75;4952741;29;20051;-76
2021/09/05 03:13:20;;;;;;;9.10;5.90;;;;;;;12.94;75.88;96485.63;4952137;29;20058;-75
2021/09/05 03:15:46;;;;;;;8.13;6.03;;;;;;;12.89;76.05;96488.53;4952767;29;20047;-75
2021/09/05 03:18:12;;;;;;;7.65;5.68;;;;;;;12.84;75.95;96481.31;4951933;29;20058;-75
2021/09/05 03:20:39;;;;;;;9.88;6.07;;;;;;;12.82;76.46;96482.81;4952650;29;20055;-75
2021/09/05 03:23:05;;;;;;;8.63;5.80;;;;;;;12.79;76.54;96482.34;4952220;29;20051;-75
2021/09/05 03:25:32;;;;;;;8.85;6.15;;;;;;;12.78;76.41;96480.72;4952417;29;20062;-76
2021/09/05 03:28:00;;;;;;;9.05;5.63;;;;;;;12.73;76.07;96480.91;4952637;29;20430;-75
2021/09/05 03:30:26;;;;;;;10.75;5.93;;;;;;;12.75;75.57;96484.13;4951736;29;20124;-75
2021/09/05 03:32:53;;;;;;;10.63;5.72;;;;;;;12.73;76.32;96491.03;4952412;29;20047;-75
2021/09/05 03:35:19;;;;;;;7.75;5.80;;;;;;;12.69;75.79;96485.44;4951979;29;20062;-75
2021/09/05 03:37:46;;;;;;;7.40;5.30;;;;;;;12.64;75.80;96491.09;4952188;29;20054;-75
2021/09/05 03:40:13;;;;;;;8.95;5.50;;;;;;;12.59;76.13;96485.81;4952053;29;20048;-76
2021/09/05 03:42:40;;;;;;;8.65;6.07;;;;;;;12.58;76.11;96500.59;4952270;29;20470;-75
2021/09/05 03:45:09;;;;;;;9.25;5.57;;;;;;;12.57;76.77;96498.16;4951813;29;20058;-76
2021/09/05 03:47:36;;;;;;;8.68;6.05;;;;;;;12.59;76.47;96499.47;4952306;29;20062;-75
2021/09/05 03:50:02;;;;;;;11.65;5.32;;;;;;;12.56;76.24;96502.84;4954746;28;20051;-76
2021/09/05 03:52:29;;;;;;;9.95;5.45;;;;;;;12.50;75.75;96504.16;4955969;29;20051;-76
2021/09/05 03:54:55;;;;;;;10.25;5.53;;;;;;;12.52;76.16;96501.88;4956067;29;20050;-76
2021/09/05 03:57:22;;;;;;;7.85;5.38;;;;;;;12.51;76.17;96501.06;4955514;29;20073;-76
2021/09/05 03:59:48;;;;;;;9.77;5.45;;;;;;;12.49;76.97;96503.34;4955420;29;20058;-76
2021/09/05 04:02:16;;;;;;;8.43;5.57;;;;;;;12.48;76.83;96500.94;4955560;29;20047;-75
2021/09/05 04:04:43;;;;;;;7.55;5.20;;;;;;;12.50;76.98;96509.59;4955927;29;20047;-76
2021/09/05 04:07:11;;;;;;;9.13;5.47;;;;;;;12.48;76.73;96509.13;4955146;29;20055;-76
2021/09/05 04:12:22;;;;;;;8.00;5.38;;;;;;;12.46;76.15;96501.25;4955285;29;20410;-75
2021/09/05 04:14:48;;;;;;;9.57;5.40;;;;;;;12.46;76.84;96503.97;4955688;29;20066;-76
2021/09/05 04:17:16;;;;;;;7.10;4.93;;;;;;;12.54;75.70;96511.34;4955118;29;20055;-75
2021/09/05 04:19:43;;;;;;;7.43;5.38;;;;;;;12.55;75.82;96498.50;4955499;29;20062;-75
2021/09/05 04:22:09;;;;;;;10.48;5.40;;;;;;;12.48;76.19;96500.94;4955077;29;20078;-76
2021/09/05 04:24:35;;;;;;;10.07;5.50;;;;;;;12.41;75.33;96515.09;4955648;29;20051;-76
2021/09/05 04:27:02;;;;;;;6.60;4.93;;;;;;;12.34;75.50;96506.59;4954946;29;20047;-77
2021/09/05 04:29:29;;;;;;;8.45;5.13;;;;;;;12.30;75.76;96511.09;4955368;29;20047;-76
2021/09/05 04:31:55;;;;;;;9.63;6.05;;;;;;;12.31;76.02;96514.63;4954957;29;20043;-76
2021/09/05 04:34:23;;;;;;;9.65;5.80;;;;;;;12.35;76.40;96524.56;4954767;29;20078;-75
2021/09/05 04:36:49;;;;;;;9.57;5.00;;;;;;;12.32;76.44;96518.97;4955409;29;20043;-75
2021/09/05 04:39:16;;;;;;;7.90;5.47;;;;;;;12.31;76.73;96523.63;4954594;29;20415;-75
2021/09/05 04:41:42;;;;;;;10.25;5.72;;;;;;;12.32;76.34;96518.97;4955170;29;20422;-75
2021/09/05 04:44:09;;;;;;;8.50;5.78;;;;;;;12.33;76.11;96528.78;4954659;29;20495;-74
2021/09/05 04:46:35;;;;;;;7.97;5.50;;;;;;;12.37;75.70;96532.44;4955027;29;20526;-76
2021/09/05 04:49:02;;;;;;;7.63;5.15;;;;;;;12.40;74.90;96537.25;4954725;29;20419;-76
2021/09/05 04:51:29;;;;;;;7.72;4.93;;;;;;;12.40;75.64;96532.59;4954929;29;20071;-75
2021/09/05 04:53:56;;;;;;;8.20;5.20;;;;;;;12.42;75.46;96535.00;4955015;29;20514;-75
2021/09/05 04:56:22;;;;;;;7.57;5.20;;;;;;;12.42;75.20;96545.91;4954393;29;20055;-75
2021/09/05 04:58:49;;;;;;;9.15;5.90;;;;;;;12.39;75.52;96541.94;4955066;29;20047;-76
2021/09/05 05:01:15;;;;;;;8.95;5.30;;;;;;;12.31;75.77;96544.66;4952739;28;20055;-76
2021/09/05 05:03:42;;;;;;;9.27;5.32;;;;;;;12.24;76.21;96545.97;4954752;29;20054;-77
2021/09/05 05:06:08;;;;;;;8.05;5.20;;;;;;;12.22;76.14;96548.22;4954221;29;20066;-79
2021/09/05 05:08:36;;;;;;;8.57;5.10;;;;;;;12.18;76.35;96555.44;4954666;29;20051;-75
2021/09/05 05:11:03;;;;;;;10.48;6.05;;;;;;;12.17;76.72;96551.13;4954198;29;20043;-78
2021/09/05 05:13:30;;;;;;;9.15;5.90;;;;;;;12.20;77.02;96558.66;4954639;29;20047;-75
2021/09/05 05:15:56;;;;;;;9.95;5.75;;;;;;;12.22;77.03;96563.81;4954657;29;20047;-76
2021/09/05 05:18:23;;;;;;;9.32;5.57;;;;;;;12.20;76.85;96555.91;4953947;29;20039;-76
2021/09/05 05:20:49;;;;;;;7.97;5.60;;;;;;;12.23;76.82;96568.94;4954474;29;20521;-77
2021/09/05 05:23:16;;;;;;;8.07;5.55;;;;;;;12.32;76.83;96568.94;4954084;29;20055;-76
2021/09/05 05:25:45;;;;;;;9.13;5.32;;;;;;;12.42;76.24;96568.56;4954339;29;20514;-80
2021/09/05 05:28:11;;;;;;;9.55;5.40;;;;;;;12.50;75.70;96564.22;4953984;29;20082;-75
2021/09/05 05:30:37;;;;;;;7.45;4.82;;;;;;;12.52;75.58;96570.16;4953940;29;20050;-77
2021/09/05 05:33:04;;;;;;;8.18;5.35;;;;;;;12.56;75.16;96576.59;4953717;29;20048;-76
2021/09/05 05:35:31;;;;;;;7.97;5.75;;;;;;;12.56;74.94;96579.31;4954390;29;20062;-77
2021/09/05 05:37:57;;;;;;;9.13;5.30;;;;;;;12.56;75.70;96575.78;4953779;28;20075;-78
2021/09/05 05:40:25;;;;;;;9.07;5.20;;;;;;;12.60;75.32;96585.75;4952843;29;20047;-75
2021/09/05 05:42:53;;;;;;;8.70;5.72;;;;;;;12.58;75.92;96582.53;4953211;29;20051;-76
2021/09/05 05:45:20;;;;;;;6.95;5.25;;;;;;;12.58;76.03;96581.72;4952881;29;20058;-75
2021/09/05 05:47:47;;;;;;;9.60;5.28;;;;;;;12.62;76.47;96586.22;4953064;29;20494;-77
2021/09/05 05:50:13;;;;;;;7.90;5.70;;;;;;;12.66;76.86;96589.91;4952663;29;20054;-76
2021/09/05 05:52:40;;;;;;;8.40;5.80;;;;;;;12.70;75.75;96592.78;4953210;29;20059;-76
2021/09/05 05:55:08;;;;;;;11.07;5.38;;;;;;;12.73;75.46;96592.94;4952696;29;20051;-75
2021/09/05 05:57:34;;;;;;;10.32;5.50;;;;;;;12.72;75.38;96591.31;4953095;29;20047;-76
2021/09/05 06:00:02;;;;;;;7.50;5.43;;;;;;;12.73;75.86;96590.19;4952542;29;20058;-76
2021/09/05 06:02:28;;;;;;;10.05;6.13;;;;;;;12.83;76.33;96588.25;4952732;29;20046;-77
2021/09/05 06:04:55;;;;;;;8.65;5.88;;;;;;;12.94;75.77;96594.94;4952793;29;20047;-78
2021/09/05 06:07:21;;;;;;;8.63;5.85;;;;;;;12.99;74.83;96592.03;4952284;29;20048;-79
2021/09/05 06:09:48;;;;;;;8.02;5.97;;;;;;;13.03;75.73;96595.72;4952809;29;20051;-76
2021/09/05 06:12:14;;;;;;;9.52;5.47;;;;;;;13.13;76.36;96592.63;4952302;28;20047;-79
2021/09/05 06:14:41;;;;;;;8.00;5.65;;;;;;;13.25;76.80;96600.97;4952897;29;20051;-77
2021/09/05 06:17:08;;;;;;;10.07;6.57;;;;;;;13.35;75.92;96593.53;4952204;29;20058;-79
2021/09/05 06:19:35;;;;;;;9.38;6.30;;;;;;;13.40;75.93;96596.06;4952614;29;20047;-77
2021/09/05 06:22:01;;;;;;;9.23;5.97;;;;;;;13.50;76.05;96603.91;4952310;29;20047;-76
2021/09/05 06:24:28;;;;;;;9.27;6.03;;;;;;;13.59;76.23;96604.66;4952551;29;20047;-76
2021/09/05 06:26:54;;;;;;;9.82;6.25;;;;;;;13.64;75.68;96604.47;4952615;29;20059;-76
2021/09/05 06:29:21;;;;;;;10.52;6.88;;;;;;;13.79;76.41;96608.56;4952063;29;20050;-76
2021/09/05 06:31:47;;;;;;;10.52;7.10;;;;;;;13.95;76.20;96611.53;4951902;29;20058;-77
2021/09/05 06:34:15;;;;;;;9.63;7.40;;;;;;;14.07;74.80;96619.78;4952035;29;20050;-75
2021/09/05 06:36:42;;;;;;;13.10;8.70;;;;;;;14.11;75.00;96615.25;4952574;29;20055;-77
2021/09/05 06:39:08;;;;;;;12.85;8.50;;;;;;;14.23;75.91;96626.25;4914420;29;1109662;-77
2021/09/05 06:41:35;;;;;;;11.27;8.23;;;;;;;14.30;74.43;96618.31;4953362;29;20054;-78
2021/09/05 06:44:01;;;;;;;15.48;8.93;;;;;;;14.31;74.68;96619.94;4952705;29;20047;-82
2021/09/05 06:46:28;;;;;;;14.90;9.65;;;;;;;14.44;74.62;96622.72;4952899;29;20058;-75
2021/09/05 06:48:54;;;;;;;14.82;10.55;;;;;;;14.49;74.66;96625.28;4952849;29;20051;-76
2021/09/05 06:51:22;;;;;;;14.35;9.75;;;;;;;14.49;74.39;96620.59;4952286;29;20059;-75
2021/09/05 06:53:48;;;;;;;13.82;9.10;;;;;;;14.52;74.14;96619.13;4953109;29;20051;-76
2021/09/05 06:56:15;;;;;;;13.55;8.55;;;;;;;14.59;74.69;96624.84;4952427;29;20058;-77
2021/09/05 06:58:41;;;;;;;11.77;7.93;;;;;;;14.65;74.15;96618.03;4952783;29;20058;-75
2021/09/05 07:01:08;;;;;;;11.75;8.50;;;;;;;14.79;75.78;96618.53;4940307;29;20056;-75
2021/09/05 07:03:35;;;;;;;14.68;9.18;;;;;;;14.93;74.61;96625.63;4933640;29;20062;-75
2021/09/05 07:06:01;;;;;;;15.85;9.20;;;;;;;14.95;73.36;96621.44;4933331;29;20060;-82
2021/09/05 07:08:29;;;;;;;15.07;9.00;;;;;;;15.09;75.71;96626.59;4933503;29;20052;-75
2021/09/05 07:10:55;;;;;;;16.23;9.00;;;;;;;15.22;73.93;96624.66;4933554;29;20056;-77
2021/09/05 07:13:22;;;;;;;13.35;8.80;;;;;;;15.32;72.74;96626.97;4933076;29;20059;-75
2021/09/05 07:15:48;;;;;;;12.10;8.88;;;;;;;15.40;72.61;96624.13;4933420;29;20511;-76
2021/09/05 07:18:15;;;;;;;15.88;9.10;;;;;;;15.57;72.51;96625.03;4932715;29;20054;-76
2021/09/05 07:20:41;;;;;;;13.30;8.13;;;;;;;15.82;72.60;96634.88;4933522;29;20066;-75
2021/09/05 07:23:08;;;;;;;12.85;9.20;;;;;;;16.13;70.27;96636.19;4933682;29;20043;-75
2021/09/05 07:25:36;;;;;;;12.55;8.38;;;;;;;17.43;68.21;96640.19;4939870;29;20047;-76
2021/09/05 07:28:02;;;;;;;15.45;8.77;;;;;;;18.88;63.68;96643.84;4939184;29;20491;-75
2021/09/05 07:30:28;;;;;;;12.80;7.95;;;;;;;20.01;59.61;96644.25;4948752;29;20430;-76
2021/09/05 07:32:55;;;;;;;12.93;7.88;;;;;;;21.00;54.89;96643.97;4958780;29;20047;-76
2021/09/05 07:35:21;;;;;;;13.05;8.60;;;;;;;21.92;53.46;96648.78;4958564;29;20055;-76
2021/09/05 07:37:48;;;;;;;10.98;7.55;;;;;;;22.66;50.68;96648.47;4958779;29;20531;-76
2021/09/05 07:40:16;;;;;;;10.73;7.60;;;;;;;23.51;47.90;96657.47;4958244;28;20058;-75
2021/09/05 07:42:44;;;;;;;10.35;7.47;;;;;;;24.06;44.69;96654.31;4958899;29;20442;-77
2021/09/05 07:45:12;;;;;;;9.85;7.68;;;;;;;24.26;44.97;96651.91;4958238;28;20451;-76
2021/09/05 07:47:38;;;;;;;11.27;7.40;;;;;;;24.83;44.07;96649.00;4951031;29;20055;-77
2021/09/05 07:50:06;;;;;;;10.18;7.55;;;;;;;25.38;44.73;96649.16;4957991;28;20051;-77
2021/09/05 07:52:32;;;;;;;11.50;7.60;;;;;;;25.80;41.69;96663.22;4958946;28;20063;-77
2021/09/05 07:54:58;;;;;;;12.10;7.97;;;;;;;26.01;42.41;96649.09;4958624;28;20051;-77
2021/09/05 07:57:25;;;;;;;12.73;7.93;;;;;;;26.12;39.79;96649.78;4958149;29;20054;-77
2021/09/05 07:59:53;;;;;;;12.52;8.70;;;;;;;26.27;39.88;96645.66;4957979;29;20058;-77
2021/09/05 08:02:19;;;;;;;11.23;8.20;;;;;;;26.43;40.63;96649.94;4957889;29;20047;-77
2021/09/05 08:04:46;;;;;;;12.00;8.00;;;;;;;26.56;38.31;96650.97;4958384;29;20055;-77
2021/09/05 08:07:12;;;;;;;10.10;7.38;;;;;;;26.94;41.05;96650.94;4958237;29;20055;-77
2021/09/05 08:09:39;;;;;;;9.95;7.28;;;;;;;27.38;39.06;96649.19;4958523;28;20058;-78
2021/09/05 08:12:06;;;;;;;10.07;7.57;;;;;;;27.83;37.37;96653.31;4958024;29;20055;-77
2021/09/05 08:14:34;;;;;;;9.80;7.60;;;;;;;27.26;36.56;96650.53;4958536;29;20051;-78
2021/09/05 08:17:02;;;;;;;11.55;7.53;;;;;;;27.27;40.03;96655.72;4958442;29;20057;-78
2021/09/05 08:19:29;;;;;;;11.35;7.50;;;;;;;27.66;38.75;96657.13;4958378;29;20050;-77
2021/09/05 08:21:55;;;;;;;10.05;7.47;;;;;;;27.81;38.18;96652.91;4958400;29;20047;-80
2021/09/05 08:24:22;;;;;;;10.50;7.93;;;;;;;28.02;39.23;96651.78;4957933;28;20059;-78
2021/09/05 08:26:48;;;;;;;10.35;7.15;;;;;;;28.28;38.26;96652.13;4958426;29;20051;-75
2021/09/05 08:29:15;;;;;;;11.75;7.32;;;;;;;28.54;36.56;96664.50;4958000;28;20507;-77
2021/09/05 08:31:41;;;;;;;9.13;7.68;;;;;;;28.54;36.75;96658.91;4955195;28;20238;-77
2021/09/05 08:34:09;;;;;;;12.30;7.90;;;;;;;28.70;37.28;96661.78;4958068;29;20451;-78
2021/09/05 08:36:35;;;;;;;9.07;7.32;;;;;;;28.88;35.93;96657.84;4955759;28;20061;-77
2021/09/05 08:39:02;;;;;;;9.02;7.20;;;;;;;29.25;35.27;96657.50;4954763;29;20047;-78
2021/09/05 08:41:28;;;;;;;9.63;7.65;;;;;;;29.49;34.65;96660.16;4955615;29;20047;-76
2021/09/05 08:43:57;;;;;;;10.32;6.65;;;;;;;29.69;36.45;96655.31;4955564;29;20055;-80
2021/09/05 08:46:23;;;;;;;7.63;6.50;;;;;;;29.92;34.93;96659.22;4955289;29;20070;-77
2021/09/05 08:48:50;;;;;;;7.95;6.22;;;;;;;29.98;33.75;96657.44;4955243;29;20059;-79
2021/09/05 08:51:18;;;;;;;9.65;7.18;;;;;;;30.03;35.33;96665.34;4954801;29;20066;-77
2021/09/05 08:53:45;;;;;;;10.98;6.72;;;;;;;30.36;35.54;96661.28;4954680;29;20051;-78
2021/09/05 08:56:12;;;;;;;9.32;6.45;;;;;;;30.52;35.58;96659.69;4954340;29;20055;-79
2021/09/05 08:58:39;;;;;;;9.52;6.53;;;;;;;30.64;33.75;96659.75;4954730;29;20051;-76
2021/09/05 09:01:16;;;;;;;8.32;6.72;;;;;;;30.77;34.47;96664.66;4954059;29;20047;-80
2021/09/05 09:03:43;;;;;;;7.15;6.13;;;;;;;31.03;33.69;96663.50;4955222;29;20122;-77
2021/09/05 09:06:09;;;;;;;10.30;6.30;;;;;;;31.25;33.82;96669.28;4954385;29;20499;-78
2021/09/05 09:08:37;;;;;;;10.68;6.30;;;;;;;31.51;31.65;96669.38;4946604;29;20047;-79
2021/09/05 09:11:04;;;;;;;10.48;6.07;;;;;;;31.66;32.67;96674.09;4954291;29;20086;-78
2021/09/05 09:13:34;;;;;;;7.53;5.95;;;;;;;31.69;32.01;96663.97;4954796;29;20114;-78
2021/09/05 09:16:06;;;;;;;8.25;6.30;;;;;;;31.79;32.55;96676.91;4954698;29;20055;-79
2021/09/05 09:18:33;;;;;;;;;;;;;;;31.87;31.12;96674.69;4955050;29;20054;-79
2021/09/05 09:21:01;;;;;;;6.78;5.32;;;;;;;31.85;30.54;96677.97;4954624;29;19926;-79
2021/09/05 09:23:30;;;;;;;7.72;5.40;;;;;;;31.76;32.42;96674.22;4954295;29;20162;-77
2021/09/05 09:26:01;;;;;;;11.52;6.03;;;;;;;31.77;32.86;96667.34;4954536;29;20052;-80
2021/09/05 09:28:30;;;;;;;8.43;5.72;;;;;;;31.64;32.26;96667.34;4954151;29;20078;-80
2021/09/05 09:30:59;;;;;;;6.93;4.53;;;;;;;31.55;31.41;96670.84;4953844;29;20047;-80
2021/09/05 09:33:27;;;;;;;7.57;5.18;;;;;;;31.32;31.32;96668.31;4953925;29;20529;-78
2021/09/05 09:35:57;;;;;;;6.93;4.57;;;;;;;30.94;31.19;96663.38;4954130;29;20059;-77
2021/09/05 09:38:24;;;;;;;6.80;4.90;;;;;;;30.58;32.57;96663.53;4953405;28;20042;-80
2021/09/05 09:41:03;;;;;;;9.05;5.00;;;;;;;30.19;33.68;96651.31;4953969;29;20499;-78
2021/09/05 09:43:32;;;;;;;7.63;4.85;;;;;;;29.88;34.43;96657.25;4954097;29;20062;-77
2021/09/05 09:46:13;;;;;;;6.50;5.05;;;;;;;29.41;36.77;96653.16;4953895;28;20051;-77
2021/09/05 09:48:43;;;;;;;7.65;4.90;;;;;;;28.86;36.03;96656.25;4953859;29;20047;-79
2021/09/05 09:51:10;;;;;;;8.50;4.97;;;;;;;28.24;38.25;96651.41;4953635;29;20122;-78
2021/09/05 09:53:38;;;;;;;8.23;5.10;;;;;;;27.77;38.69;96651.41;4953423;29;20051;-77
2021/09/05 09:56:06;;;;;;;7.43;5.68;;;;;;;27.39;38.39;96653.53;4953351;29;20055;-78
2021/09/05 09:58:34;;;;;;;7.35;5.53;;;;;;;26.96;40.23;96642.91;4953949;29;20054;-77
2021/09/05 10:01:02;;;;;;;8.45;6.13;;;;;;;26.67;43.62;96653.63;4953116;29;20055;-76
2021/09/05 10:03:31;;;;;;;6.50;5.30;;;;;;;26.65;41.50;96654.06;4953637;29;20043;-77
2021/09/05 10:05:59;;;;;;;6.28;4.55;;;;;;;26.57;41.07;96649.75;4953680;29;20047;-76
2021/09/05 10:08:26;;;;;;;7.28;4.88;;;;;;;26.47;42.34;96657.06;4953167;29;20047;-77
2021/09/05 10:10:56;;;;;;;7.28;4.97;;;;;;;26.18;38.89;96650.94;4953793;29;20051;-77
2021/09/05 10:13:25;;;;;;;7.28;4.85;;;;;;;25.95;40.40;96647.97;4953381;29;20046;-79
2021/09/05 10:15:53;;;;;;;6.07;4.70;;;;;;;25.87;40.73;96646.44;4953581;29;20073;-77
2021/09/05 10:18:20;;;;;;;7.78;5.22;;;;;;;25.96;41.35;96655.13;4953199;29;20050;-77
2021/09/05 10:20:47;;;;;;;5.88;4.80;;;;;;;25.96;42.16;96649.53;4953664;29;20415;-77
2021/09/05 10:23:13;;;;;;;6.70;4.68;;;;;;;26.01;41.26;96646.31;4952849;29;20121;-77
2021/09/05 10:25:40;;;;;;;10.32;5.20;;;;;;;25.96;41.45;96641.97;4953388;29;20051;-77
2021/09/05 10:28:09;;;;;;;6.45;4.65;;;;;;;25.87;40.52;96636.06;4952981;29;20051;-78
2021/09/05 10:30:36;;;;;;;5.78;4.45;;;;;;;25.84;40.11;96641.66;4952751;29;20047;-77
2021/09/05 10:33:04;;;;;;;7.50;4.47;;;;;;;25.86;41.91;96640.06;4952862;29;20106;-77
2021/09/05 10:35:37;;;;;;;5.80;4.63;;;;;;;25.74;41.28;96638.56;4953298;29;20043;-78
2021/09/05 10:38:26;;;;;;;6.93;4.93;;;;;;;25.66;41.26;96639.78;4952679;28;20067;-79
2021/09/05 10:40:57;;;;;;;6.38;4.78;;;;;;;25.57;41.81;96639.44;4953368;29;20498;-77
2021/09/05 10:43:45;;;;;;;5.78;4.30;;;;;;;25.42;39.73;96637.94;4952910;29;20462;-78
2021/09/05 10:46:13;;;;;;;6.38;4.45;;;;;;;25.38;40.86;96637.22;4952526;29;20649;-78
2021/09/05 10:48:45;;;;;;;7.30;4.85;;;;;;;25.35;41.39;96635.22;4953115;29;20051;-78
2021/09/05 10:51:13;;;;;;;7.25;4.85;;;;;;;25.27;37.96;96642.03;4952834;29;20043;-79
2021/09/05 10:53:49;;;;;;;7.43;4.97;;;;;;;25.23;39.64;96636.50;4953021;29;20499;-78
2021/09/05 10:56:17;;;;;;;7.85;5.00;;;;;;;25.11;38.56;96634.97;4952958;29;20063;-77
2021/09/05 10:58:48;;;;;;;6.15;4.55;;;;;;;25.08;41.58;96630.22;4952299;28;20051;-78
2021/09/05 11:01:25;;;;;;;7.32;4.72;;;;;;;25.01;40.34;96641.38;4952052;29;20051;-78
2021/09/05 11:04:28;;;;;;;8.90;4.78;;;;;;;24.98;38.53;96633.81;4953200;29;20051;-77
2021/09/05 11:07:00;;;;;;;5.57;4.17;;;;;;;24.91;38.61;96639.44;4952573;29;20047;-76
2021/09/05 11:09:47;;;;;;;6.20;4.32;;;;;;;24.85;38.46;96638.22;4952688;29;20043;-78
2021/09/05 11:12:23;;;;;;;6.38;4.45;;;;;;;24.77;38.32;96637.47;4952413;29;20459;-77
2021/09/05 11:14:58;;;;;;;6.10;4.13;;;;;;;24.69;38.66;96636.75;4952734;29;20043;-77
2021/09/05 11:17:26;;;;;;;8.35;4.93;;;;;;;24.62;37.95;96636.75;4952144;29;20047;-77
2021/09/05 11:19:56;;;;;;;9.23;4.95;;;;;;;24.63;40.90;96637.53;4952227;29;20507;-77
2021/09/05 11:22:24;;;;;;;6.78;4.45;;;;;;;24.63;38.87;96632.75;4952181;29;20495;-76
2021/09/05 11:25:23;;;;;;;6.22;4.80;;;;;;;24.65;39.65;96635.94;4952783;29;20095;-77
2021/09/05 11:28:02;;;;;;;6.22;4.28;;;;;;;24.65;39.98;96635.94;4951871;29;20047;-78
2021/09/05 11:30:31;;;;;;;6.43;4.82;;;;;;;24.67;39.17;96630.75;4951813;29;20048;-77
2021/09/05 11:33:00;;;;;;;8.23;4.70;;;;;;;24.65;38.23;96629.59;4952238;29;20062;-81
2021/09/05 11:35:35;;;;;;;7.30;4.72;;;;;;;24.63;37.09;96638.31;4952300;29;20058;-77